< < Back
Terminal Aerodrome Forecast


Current Version              Previous Versions:   1  2  3  4  5  6  7  8  9  

Terminal Aerodrome Forecast

631
FTUS42 KGSP 151600 AAB
TAFGSP
TAF AMD
KGSP 151633Z 1517/1612 21014G22KT P6SM -SHRA BKN013 OVC025
      TEMPO 1517/1518 2SM +SHRA BKN008
     FM151800 28012G21KT P6SM OVC040
     FM152100 33018G34KT P6SM SCT070
     FM160200 35013G23KT P6SM SKC
     FM160400 36009KT P6SM SKC=

Latest METAR

095
SAUS70 KWBC 161000 RRG
MTRGSP
METAR KGSP 160953Z AUTO 03004KT 10SM CLR 01/M04 A3021 RMK AO2 SLP231
T00111044


USA.gov is the U.S. government's official web portal to all federal, state and local government web resources and services.